sensor_id;sensor_type;location;lat;lon;timestamp;P1;durP1;ratioP1;P2;durP2;ratioP2
11829;SDS011;5972;42.134;24.718;2023-09-19T00:00:31;6.38;;;4.75;;
11829;SDS011;5972;42.134;24.718;2023-09-19T00:02:59;9.15;;;5.40;;
11829;SDS011;5972;42.134;24.718;2023-09-19T00:05:28;6.13;;;4.82;;
11829;SDS011;5972;42.134;24.718;2023-09-19T00:07:57;11.40;;;4.78;;
11829;SDS011;5972;42.134;24.718;2023-09-19T00:10:24;5.68;;;4.95;;
11829;SDS011;5972;42.134;24.718;2023-09-19T00:12:52;7.50;;;5.00;;
11829;SDS011;5972;42.134;24.718;2023-09-19T00:15:21;6.65;;;5.10;;
11829;SDS011;5972;42.134;24.718;2023-09-19T00:17:48;9.98;;;5.15;;
11829;SDS011;5972;42.134;24.718;2023-09-19T00:20:17;6.30;;;5.07;;
11829;SDS011;5972;42.134;24.718;2023-09-19T00:22:48;8.05;;;4.60;;
11829;SDS011;5972;42.134;24.718;2023-09-19T00:25:15;5.60;;;4.75;;
11829;SDS011;5972;42.134;24.718;2023-09-19T00:27:42;6.53;;;4.95;;
11829;SDS011;5972;42.134;24.718;2023-09-19T00:30:10;6.07;;;4.38;;
11829;SDS011;5972;42.134;24.718;2023-09-19T00:32:41;6.22;;;4.60;;
11829;SDS011;5972;42.134;24.718;2023-09-19T00:35:09;8.00;;;4.65;;
11829;SDS011;5972;42.134;24.718;2023-09-19T00:37:37;6.85;;;4.22;;
11829;SDS011;5972;42.134;24.718;2023-09-19T00:40:07;5.82;;;4.88;;
11829;SDS011;5972;42.134;24.718;2023-09-19T00:42:37;7.75;;;4.70;;
11829;SDS011;5972;42.134;24.718;2023-09-19T00:45:06;8.45;;;4.88;;
11829;SDS011;5972;42.134;24.718;2023-09-19T00:47:34;5.97;;;4.63;;
11829;SDS011;5972;42.134;24.718;2023-09-19T00:50:02;7.40;;;4.18;;
11829;SDS011;5972;42.134;24.718;2023-09-19T00:52:32;10.55;;;4.70;;
11829;SDS011;5972;42.134;24.718;2023-09-19T00:55:02;6.63;;;4.40;;
11829;SDS011;5972;42.134;24.718;2023-09-19T00:57:30;6.65;;;4.65;;
11829;SDS011;5972;42.134;24.718;2023-09-19T00:59:58;12.80;;;5.15;;
11829;SDS011;5972;42.134;24.718;2023-09-19T01:02:30;8.77;;;4.82;;
11829;SDS011;5972;42.134;24.718;2023-09-19T01:04:58;9.35;;;4.53;;
11829;SDS011;5972;42.134;24.718;2023-09-19T01:07:25;7.97;;;4.70;;
11829;SDS011;5972;42.134;24.718;2023-09-19T01:09:55;7.97;;;4.40;;
11829;SDS011;5972;42.134;24.718;2023-09-19T01:12:26;8.05;;;4.97;;
11829;SDS011;5972;42.134;24.718;2023-09-19T01:15:01;7.32;;;4.78;;
11829;SDS011;5972;42.134;24.718;2023-09-19T01:17:40;9.07;;;4.75;;
11829;SDS011;5972;42.134;24.718;2023-09-19T01:20:25;6.70;;;5.05;;
11829;SDS011;5972;42.134;24.718;2023-09-19T01:23:06;9.10;;;4.78;;
11829;SDS011;5972;42.134;24.718;2023-09-19T01:28:59;7.40;;;4.63;;
11829;SDS011;5972;42.134;24.718;2023-09-19T01:31:40;11.55;;;5.10;;
11829;SDS011;5972;42.134;24.718;2023-09-19T01:34:11;6.45;;;4.85;;
11829;SDS011;5972;42.134;24.718;2023-09-19T01:36:38;7.25;;;5.15;;
11829;SDS011;5972;42.134;24.718;2023-09-19T01:39:05;12.60;;;5.18;;
11829;SDS011;5972;42.134;24.718;2023-09-19T01:41:40;8.07;;;4.47;;
11829;SDS011;5972;42.134;24.718;2023-09-19T01:44:17;7.20;;;5.05;;
11829;SDS011;5972;42.134;24.718;2023-09-19T01:46:52;6.68;;;4.82;;
11829;SDS011;5972;42.134;24.718;2023-09-19T01:49:32;8.43;;;5.43;;
11829;SDS011;5972;42.134;24.718;2023-09-19T01:52:05;7.82;;;4.75;;
11829;SDS011;5972;42.134;24.718;2023-09-19T01:54:40;5.10;;;4.60;;
11829;SDS011;5972;42.134;24.718;2023-09-19T01:57:14;8.73;;;4.60;;
11829;SDS011;5972;42.134;24.718;2023-09-19T01:59:48;6.05;;;4.70;;
11829;SDS011;5972;42.134;24.718;2023-09-19T02:02:20;6.13;;;5.05;;
11829;SDS011;5972;42.134;24.718;2023-09-19T02:04:48;5.40;;;4.85;;
11829;SDS011;5972;42.134;24.718;2023-09-19T02:07:15;9.00;;;5.22;;
11829;SDS011;5972;42.134;24.718;2023-09-19T02:09:43;5.53;;;4.78;;
11829;SDS011;5972;42.134;24.718;2023-09-19T02:12:10;6.47;;;4.18;;
11829;SDS011;5972;42.134;24.718;2023-09-19T02:14:36;6.65;;;4.60;;
11829;SDS011;5972;42.134;24.718;2023-09-19T02:17:03;6.80;;;4.45;;
11829;SDS011;5972;42.134;24.718;2023-09-19T02:19:33;9.07;;;4.90;;
11829;SDS011;5972;42.134;24.718;2023-09-19T02:22:01;5.38;;;4.78;;
11829;SDS011;5972;42.134;24.718;2023-09-19T02:24:32;8.30;;;4.97;;
11829;SDS011;5972;42.134;24.718;2023-09-19T02:27:00;6.95;;;4.53;;
11829;SDS011;5972;42.134;24.718;2023-09-19T02:29:29;6.63;;;4.70;;
11829;SDS011;5972;42.134;24.718;2023-09-19T02:31:56;7.10;;;4.80;;
11829;SDS011;5972;42.134;24.718;2023-09-19T02:34:23;7.18;;;4.55;;
11829;SDS011;5972;42.134;24.718;2023-09-19T02:36:52;4.53;;;4.13;;
11829;SDS011;5972;42.134;24.718;2023-09-19T02:39:21;5.85;;;4.18;;
11829;SDS011;5972;42.134;24.718;2023-09-19T02:41:48;6.40;;;4.70;;
11829;SDS011;5972;42.134;24.718;2023-09-19T02:44:15;6.03;;;4.40;;
11829;SDS011;5972;42.134;24.718;2023-09-19T02:46:42;5.55;;;4.57;;
11829;SDS011;5972;42.134;24.718;2023-09-19T02:49:09;6.72;;;4.20;;
11829;SDS011;5972;42.134;24.718;2023-09-19T02:51:38;7.20;;;4.40;;
11829;SDS011;5972;42.134;24.718;2023-09-19T02:54:07;6.55;;;4.30;;
11829;SDS011;5972;42.134;24.718;2023-09-19T02:56:35;9.65;;;4.65;;
11829;SDS011;5972;42.134;24.718;2023-09-19T02:59:02;6.85;;;4.30;;
11829;SDS011;5972;42.134;24.718;2023-09-19T03:01:29;7.90;;;4.28;;
11829;SDS011;5972;42.134;24.718;2023-09-19T03:03:56;6.55;;;4.25;;
11829;SDS011;5972;42.134;24.718;2023-09-19T03:06:23;7.70;;;4.60;;
11829;SDS011;5972;42.134;24.718;2023-09-19T03:08:50;8.68;;;4.78;;
11829;SDS011;5972;42.134;24.718;2023-09-19T03:11:19;7.35;;;4.53;;
11829;SDS011;5972;42.134;24.718;2023-09-19T03:13:50;7.65;;;4.53;;
11829;SDS011;5972;42.134;24.718;2023-09-19T03:16:17;4.80;;;4.30;;
11829;SDS011;5972;42.134;24.718;2023-09-19T03:18:46;6.38;;;4.72;;
11829;SDS011;5972;42.134;24.718;2023-09-19T03:21:14;7.10;;;4.40;;
11829;SDS011;5972;42.134;24.718;2023-09-19T03:23:42;7.32;;;4.70;;
11829;SDS011;5972;42.134;24.718;2023-09-19T03:26:10;7.22;;;5.10;;
11829;SDS011;5972;42.134;24.718;2023-09-19T03:28:39;4.70;;;4.00;;
11829;SDS011;5972;42.134;24.718;2023-09-19T03:31:07;5.43;;;4.28;;
11829;SDS011;5972;42.134;24.718;2023-09-19T03:33:34;6.97;;;4.63;;
11829;SDS011;5972;42.134;24.718;2023-09-19T03:36:02;7.60;;;4.47;;
11829;SDS011;5972;42.134;24.718;2023-09-19T03:38:30;12.50;;;4.53;;
11829;SDS011;5972;42.134;24.718;2023-09-19T03:40:58;8.57;;;4.80;;
11829;SDS011;5972;42.134;24.718;2023-09-19T03:43:25;8.57;;;4.68;;
11829;SDS011;5972;42.134;24.718;2023-09-19T03:45:53;9.32;;;5.00;;
11829;SDS011;5972;42.134;24.718;2023-09-19T03:48:20;12.40;;;4.90;;
11829;SDS011;5972;42.134;24.718;2023-09-19T03:50:48;9.50;;;4.80;;
11829;SDS011;5972;42.134;24.718;2023-09-19T03:53:15;6.35;;;4.45;;
11829;SDS011;5972;42.134;24.718;2023-09-19T03:55:44;8.70;;;4.50;;
11829;SDS011;5972;42.134;24.718;2023-09-19T03:58:12;8.73;;;5.05;;
11829;SDS011;5972;42.134;24.718;2023-09-19T04:00:38;8.73;;;4.88;;
11829;SDS011;5972;42.134;24.718;2023-09-19T04:03:07;6.53;;;4.20;;
11829;SDS011;5972;42.134;24.718;2023-09-19T04:05:34;7.30;;;4.40;;
11829;SDS011;5972;42.134;24.718;2023-09-19T04:08:01;11.68;;;4.95;;
11829;SDS011;5972;42.134;24.718;2023-09-19T04:10:27;8.70;;;4.80;;
11829;SDS011;5972;42.134;24.718;2023-09-19T04:12:55;10.05;;;4.82;;
11829;SDS011;5972;42.134;24.718;2023-09-19T04:15:22;7.93;;;4.60;;
11829;SDS011;5972;42.134;24.718;2023-09-19T04:17:50;5.60;;;4.88;;
11829;SDS011;5972;42.134;24.718;2023-09-19T04:20:18;7.15;;;4.57;;
11829;SDS011;5972;42.134;24.718;2023-09-19T04:22:48;10.07;;;5.22;;
11829;SDS011;5972;42.134;24.718;2023-09-19T04:25:15;6.90;;;4.60;;
11829;SDS011;5972;42.134;24.718;2023-09-19T04:27:42;7.15;;;4.78;;
11829;SDS011;5972;42.134;24.718;2023-09-19T04:30:11;6.72;;;4.35;;
11829;SDS011;5972;42.134;24.718;2023-09-19T04:32:39;13.93;;;5.18;;
11829;SDS011;5972;42.134;24.718;2023-09-19T04:35:07;11.63;;;5.07;;
11829;SDS011;5972;42.134;24.718;2023-09-19T04:37:38;15.13;;;5.18;;
11829;SDS011;5972;42.134;24.718;2023-09-19T04:40:07;11.65;;;4.78;;
11829;SDS011;5972;42.134;24.718;2023-09-19T04:42:39;12.30;;;5.05;;
11829;SDS011;5972;42.134;24.718;2023-09-19T04:45:07;15.48;;;5.53;;
11829;SDS011;5972;42.134;24.718;2023-09-19T04:47:35;8.02;;;4.72;;
11829;SDS011;5972;42.134;24.718;2023-09-19T04:50:04;13.07;;;4.72;;
11829;SDS011;5972;42.134;24.718;2023-09-19T04:52:33;7.03;;;4.82;;
11829;SDS011;5972;42.134;24.718;2023-09-19T04:55:01;8.75;;;4.55;;
11829;SDS011;5972;42.134;24.718;2023-09-19T04:57:29;10.85;;;4.80;;
11829;SDS011;5972;42.134;24.718;2023-09-19T04:59:56;11.63;;;4.82;;
11829;SDS011;5972;42.134;24.718;2023-09-19T05:02:23;10.70;;;5.22;;
11829;SDS011;5972;42.134;24.718;2023-09-19T05:04:51;8.93;;;4.50;;
11829;SDS011;5972;42.134;24.718;2023-09-19T05:07:18;8.27;;;5.03;;
11829;SDS011;5972;42.134;24.718;2023-09-19T05:09:47;9.20;;;5.03;;
11829;SDS011;5972;42.134;24.718;2023-09-19T05:12:15;10.63;;;4.95;;
11829;SDS011;5972;42.134;24.718;2023-09-19T05:14:44;9.00;;;4.90;;
11829;SDS011;5972;42.134;24.718;2023-09-19T05:17:11;10.18;;;4.45;;
11829;SDS011;5972;42.134;24.718;2023-09-19T05:19:42;11.57;;;5.05;;
11829;SDS011;5972;42.134;24.718;2023-09-19T05:22:09;12.55;;;4.53;;
11829;SDS011;5972;42.134;24.718;2023-09-19T05:24:36;7.97;;;4.90;;
11829;SDS011;5972;42.134;24.718;2023-09-19T05:27:04;12.90;;;5.10;;
11829;SDS011;5972;42.134;24.718;2023-09-19T05:29:33;13.07;;;4.55;;
11829;SDS011;5972;42.134;24.718;2023-09-19T05:32:00;8.48;;;4.60;;
11829;SDS011;5972;42.134;24.718;2023-09-19T05:34:29;11.00;;;4.68;;
11829;SDS011;5972;42.134;24.718;2023-09-19T05:36:55;10.32;;;4.90;;
11829;SDS011;5972;42.134;24.718;2023-09-19T05:39:22;13.35;;;4.97;;
11829;SDS011;5972;42.134;24.718;2023-09-19T05:41:49;11.85;;;4.85;;
11829;SDS011;5972;42.134;24.718;2023-09-19T05:44:16;12.05;;;4.70;;
11829;SDS011;5972;42.134;24.718;2023-09-19T05:46:44;7.22;;;4.65;;
11829;SDS011;5972;42.134;24.718;2023-09-19T05:49:13;11.23;;;4.40;;
11829;SDS011;5972;42.134;24.718;2023-09-19T05:51:41;10.13;;;4.70;;
11829;SDS011;5972;42.134;24.718;2023-09-19T05:54:07;6.50;;;4.40;;
11829;SDS011;5972;42.134;24.718;2023-09-19T05:56:36;8.65;;;4.45;;
11829;SDS011;5972;42.134;24.718;2023-09-19T05:59:03;7.15;;;4.65;;
11829;SDS011;5972;42.134;24.718;2023-09-19T06:01:30;13.52;;;4.60;;
11829;SDS011;5972;42.134;24.718;2023-09-19T06:03:59;6.70;;;3.90;;
11829;SDS011;5972;42.134;24.718;2023-09-19T06:06:26;11.13;;;4.30;;
11829;SDS011;5972;42.134;24.718;2023-09-19T06:08:53;14.48;;;4.38;;
11829;SDS011;5972;42.134;24.718;2023-09-19T06:11:19;5.50;;;4.25;;
11829;SDS011;5972;42.134;24.718;2023-09-19T06:13:46;8.10;;;4.63;;
11829;SDS011;5972;42.134;24.718;2023-09-19T06:16:13;11.40;;;4.90;;
11829;SDS011;5972;42.134;24.718;2023-09-19T06:18:40;14.07;;;5.05;;
11829;SDS011;5972;42.134;24.718;2023-09-19T06:21:08;12.68;;;5.00;;
11829;SDS011;5972;42.134;24.718;2023-09-19T06:23:36;15.68;;;4.80;;
11829;SDS011;5972;42.134;24.718;2023-09-19T06:26:03;16.50;;;5.07;;
11829;SDS011;5972;42.134;24.718;2023-09-19T06:28:31;7.45;;;4.40;;
11829;SDS011;5972;42.134;24.718;2023-09-19T06:30:58;10.18;;;4.68;;
11829;SDS011;5972;42.134;24.718;2023-09-19T06:33:25;6.53;;;4.55;;
11829;SDS011;5972;42.134;24.718;2023-09-19T06:35:52;10.15;;;4.10;;
11829;SDS011;5972;42.134;24.718;2023-09-19T06:38:25;4.40;;;3.88;;
11829;SDS011;5972;42.134;24.718;2023-09-19T06:40:53;7.47;;;4.43;;
11829;SDS011;5972;42.134;24.718;2023-09-19T06:43:20;4.60;;;3.85;;
11829;SDS011;5972;42.134;24.718;2023-09-19T06:45:47;8.90;;;4.22;;
11829;SDS011;5972;42.134;24.718;2023-09-19T06:48:15;5.82;;;3.85;;
11829;SDS011;5972;42.134;24.718;2023-09-19T06:50:43;7.05;;;4.63;;
11829;SDS011;5972;42.134;24.718;2023-09-19T06:53:10;6.30;;;4.50;;
11829;SDS011;5972;42.134;24.718;2023-09-19T06:55:38;12.98;;;4.30;;
11829;SDS011;5972;42.134;24.718;2023-09-19T06:58:05;7.45;;;3.75;;
11829;SDS011;5972;42.134;24.718;2023-09-19T07:00:33;6.38;;;4.47;;
11829;SDS011;5972;42.134;24.718;2023-09-19T07:03:02;7.93;;;4.20;;
11829;SDS011;5972;42.134;24.718;2023-09-19T07:05:34;5.65;;;4.15;;
11829;SDS011;5972;42.134;24.718;2023-09-19T07:08:02;3.95;;;3.55;;
11829;SDS011;5972;42.134;24.718;2023-09-19T07:10:31;4.85;;;3.30;;
11829;SDS011;5972;42.134;24.718;2023-09-19T07:13:01;9.98;;;3.78;;
11829;SDS011;5972;42.134;24.718;2023-09-19T07:15:30;6.03;;;3.80;;
11829;SDS011;5972;42.134;24.718;2023-09-19T07:18:00;5.85;;;3.78;;
11829;SDS011;5972;42.134;24.718;2023-09-19T07:20:27;7.28;;;4.13;;
11829;SDS011;5972;42.134;24.718;2023-09-19T07:22:57;3.97;;;3.65;;
11829;SDS011;5972;42.134;24.718;2023-09-19T07:25:26;5.13;;;3.33;;
11829;SDS011;5972;42.134;24.718;2023-09-19T07:27:54;5.28;;;3.40;;
11829;SDS011;5972;42.134;24.718;2023-09-19T07:30:23;5.78;;;3.53;;
11829;SDS011;5972;42.134;24.718;2023-09-19T07:32:51;5.55;;;3.50;;
11829;SDS011;5972;42.134;24.718;2023-09-19T07:35:18;8.23;;;3.70;;
11829;SDS011;5972;42.134;24.718;2023-09-19T07:37:46;6.30;;;3.72;;
11829;SDS011;5972;42.134;24.718;2023-09-19T07:40:14;4.05;;;3.58;;
11829;SDS011;5972;42.134;24.718;2023-09-19T07:42:41;7.60;;;3.65;;
11829;SDS011;5972;42.134;24.718;2023-09-19T07:45:09;4.07;;;3.65;;
11829;SDS011;5972;42.134;24.718;2023-09-19T07:47:43;5.65;;;3.60;;
11829;SDS011;5972;42.134;24.718;2023-09-19T07:50:10;7.32;;;3.40;;
11829;SDS011;5972;42.134;24.718;2023-09-19T07:52:37;11.55;;;4.07;;
11829;SDS011;5972;42.134;24.718;2023-09-19T07:55:05;9.75;;;3.60;;
11829;SDS011;5972;42.134;24.718;2023-09-19T07:57:34;5.45;;;3.85;;
11829;SDS011;5972;42.134;24.718;2023-09-19T08:00:01;6.18;;;3.38;;
11829;SDS011;5972;42.134;24.718;2023-09-19T08:02:30;6.80;;;3.90;;
11829;SDS011;5972;42.134;24.718;2023-09-19T08:05:01;5.20;;;3.65;;
11829;SDS011;5972;42.134;24.718;2023-09-19T08:07:31;5.90;;;3.60;;
11829;SDS011;5972;42.134;24.718;2023-09-19T08:09:58;5.05;;;3.90;;
11829;SDS011;5972;42.134;24.718;2023-09-19T08:12:25;9.00;;;4.00;;
11829;SDS011;5972;42.134;24.718;2023-09-19T08:14:52;6.25;;;3.70;;
11829;SDS011;5972;42.134;24.718;2023-09-19T08:17:20;5.30;;;3.65;;
11829;SDS011;5972;42.134;24.718;2023-09-19T08:19:48;4.90;;;3.60;;
11829;SDS011;5972;42.134;24.718;2023-09-19T08:22:19;9.93;;;4.07;;
11829;SDS011;5972;42.134;24.718;2023-09-19T08:24:46;5.20;;;3.78;;
11829;SDS011;5972;42.134;24.718;2023-09-19T08:27:14;4.97;;;3.72;;
11829;SDS011;5972;42.134;24.718;2023-09-19T08:29:44;5.55;;;3.72;;
11829;SDS011;5972;42.134;24.718;2023-09-19T08:32:11;6.05;;;3.67;;
11829;SDS011;5972;42.134;24.718;2023-09-19T08:34:39;13.95;;;4.50;;
11829;SDS011;5972;42.134;24.718;2023-09-19T08:37:06;8.27;;;3.75;;
11829;SDS011;5972;42.134;24.718;2023-09-19T08:39:35;5.95;;;3.78;;
11829;SDS011;5972;42.134;24.718;2023-09-19T08:42:03;5.68;;;3.90;;
11829;SDS011;5972;42.134;24.718;2023-09-19T08:44:30;8.15;;;3.80;;
11829;SDS011;5972;42.134;24.718;2023-09-19T08:47:05;8.32;;;4.20;;
11829;SDS011;5972;42.134;24.718;2023-09-19T08:49:36;23.25;;;4.30;;
11829;SDS011;5972;42.134;24.718;2023-09-19T08:52:16;5.68;;;3.67;;
11829;SDS011;5972;42.134;24.718;2023-09-19T08:54:49;4.18;;;3.70;;
11829;SDS011;5972;42.134;24.718;2023-09-19T08:57:19;4.85;;;3.80;;
11829;SDS011;5972;42.134;24.718;2023-09-19T08:59:47;7.65;;;4.60;;
11829;SDS011;5972;42.134;24.718;2023-09-19T09:02:15;9.52;;;4.05;;
11829;SDS011;5972;42.134;24.718;2023-09-19T09:04:44;9.68;;;4.32;;
11829;SDS011;5972;42.134;24.718;2023-09-19T09:07:13;4.95;;;3.90;;
11829;SDS011;5972;42.134;24.718;2023-09-19T09:09:41;7.45;;;3.83;;
11829;SDS011;5972;42.134;24.718;2023-09-19T09:12:12;9.45;;;4.05;;
11829;SDS011;5972;42.134;24.718;2023-09-19T09:14:40;4.32;;;3.80;;
11829;SDS011;5972;42.134;24.718;2023-09-19T09:17:11;6.90;;;4.40;;
11829;SDS011;5972;42.134;24.718;2023-09-19T09:19:38;4.63;;;4.15;;
11829;SDS011;5972;42.134;24.718;2023-09-19T09:22:07;8.88;;;4.00;;
11829;SDS011;5972;42.134;24.718;2023-09-19T09:24:35;6.05;;;4.13;;
11829;SDS011;5972;42.134;24.718;2023-09-19T09:27:03;6.38;;;4.22;;
11829;SDS011;5972;42.134;24.718;2023-09-19T09:29:44;6.25;;;4.30;;
11829;SDS011;5972;42.134;24.718;2023-09-19T09:32:18;8.18;;;3.95;;
11829;SDS011;5972;42.134;24.718;2023-09-19T09:34:46;4.75;;;4.20;;
11829;SDS011;5972;42.134;24.718;2023-09-19T09:37:16;6.15;;;4.30;;
11829;SDS011;5972;42.134;24.718;2023-09-19T09:39:52;5.68;;;4.07;;
11829;SDS011;5972;42.134;24.718;2023-09-19T09:42:31;7.82;;;4.00;;
11829;SDS011;5972;42.134;24.718;2023-09-19T09:45:15;7.57;;;4.18;;
11829;SDS011;5972;42.134;24.718;2023-09-19T09:47:43;23.92;;;5.00;;
11829;SDS011;5972;42.134;24.718;2023-09-19T09:50:27;7.95;;;4.20;;
11829;SDS011;5972;42.134;24.718;2023-09-19T09:53:02;11.43;;;4.32;;
11829;SDS011;5972;42.134;24.718;2023-09-19T09:55:41;7.85;;;4.20;;
11829;SDS011;5972;42.134;24.718;2023-09-19T09:58:23;4.57;;;3.70;;
11829;SDS011;5972;42.134;24.718;2023-09-19T10:00:56;6.18;;;3.75;;
11829;SDS011;5972;42.134;24.718;2023-09-19T10:03:33;11.13;;;4.38;;
11829;SDS011;5972;42.134;24.718;2023-09-19T10:06:05;13.20;;;4.15;;
11829;SDS011;5972;42.134;24.718;2023-09-19T10:09:00;8.88;;;4.50;;
11829;SDS011;5972;42.134;24.718;2023-09-19T10:11:30;9.63;;;4.32;;
11829;SDS011;5972;42.134;24.718;2023-09-19T10:13:58;6.50;;;4.15;;
11829;SDS011;5972;42.134;24.718;2023-09-19T10:16:30;5.60;;;3.72;;
11829;SDS011;5972;42.134;24.718;2023-09-19T10:18:58;4.13;;;3.70;;
11829;SDS011;5972;42.134;24.718;2023-09-19T10:21:28;5.90;;;4.07;;
11829;SDS011;5972;42.134;24.718;2023-09-19T10:23:56;5.13;;;4.20;;
11829;SDS011;5972;42.134;24.718;2023-09-19T10:26:25;13.02;;;4.53;;
11829;SDS011;5972;42.134;24.718;2023-09-19T10:28:56;8.98;;;4.28;;
11829;SDS011;5972;42.134;24.718;2023-09-19T10:31:26;8.48;;;4.13;;
11829;SDS011;5972;42.134;24.718;2023-09-19T10:33:56;9.13;;;4.13;;
11829;SDS011;5972;42.134;24.718;2023-09-19T10:36:24;10.57;;;4.30;;
11829;SDS011;5972;42.134;24.718;2023-09-19T10:38:52;7.80;;;4.13;;
11829;SDS011;5972;42.134;24.718;2023-09-19T10:41:23;9.77;;;4.50;;
11829;SDS011;5972;42.134;24.718;2023-09-19T10:43:51;6.15;;;4.07;;
11829;SDS011;5972;42.134;24.718;2023-09-19T10:46:21;7.72;;;3.97;;
11829;SDS011;5972;42.134;24.718;2023-09-19T10:48:48;9.35;;;4.00;;
11829;SDS011;5972;42.134;24.718;2023-09-19T10:51:21;6.68;;;3.85;;
11829;SDS011;5972;42.134;24.718;2023-09-19T10:53:54;8.68;;;3.90;;
11829;SDS011;5972;42.134;24.718;2023-09-19T10:56:27;6.93;;;3.90;;
11829;SDS011;5972;42.134;24.718;2023-09-19T10:59:05;10.13;;;4.47;;
11829;SDS011;5972;42.134;24.718;2023-09-19T11:01:41;8.48;;;4.00;;
11829;SDS011;5972;42.134;24.718;2023-09-19T11:04:21;6.75;;;4.05;;
11829;SDS011;5972;42.134;24.718;2023-09-19T11:07:01;4.85;;;4.05;;
11829;SDS011;5972;42.134;24.718;2023-09-19T11:09:45;8.73;;;4.40;;
11829;SDS011;5972;42.134;24.718;2023-09-19T11:24:33;6.03;;;4.10;;
11829;SDS011;5972;42.134;24.718;2023-09-19T11:27:13;7.00;;;4.55;;
11829;SDS011;5972;42.134;24.718;2023-09-19T11:29:43;6.50;;;4.10;;
11829;SDS011;5972;42.134;24.718;2023-09-19T11:32:10;9.27;;;3.90;;
11829;SDS011;5972;42.134;24.718;2023-09-19T11:34:40;7.32;;;4.40;;
11829;SDS011;5972;42.134;24.718;2023-09-19T11:40:34;7.93;;;4.15;;
11829;SDS011;5972;42.134;24.718;2023-09-19T11:46:06;7.47;;;4.13;;
11829;SDS011;5972;42.134;24.718;2023-09-19T11:48:33;5.72;;;4.15;;
11829;SDS011;5972;42.134;24.718;2023-09-19T11:53:55;7.35;;;4.30;;
11829;SDS011;5972;42.134;24.718;2023-09-19T11:56:26;8.55;;;4.45;;
11829;SDS011;5972;42.134;24.718;2023-09-19T11:58:54;8.57;;;4.70;;
11829;SDS011;5972;42.134;24.718;2023-09-19T12:01:23;6.68;;;4.00;;
11829;SDS011;5972;42.134;24.718;2023-09-19T12:03:54;11.43;;;3.80;;
11829;SDS011;5972;42.134;24.718;2023-09-19T12:06:23;4.82;;;3.70;;
11829;SDS011;5972;42.134;24.718;2023-09-19T12:08:51;8.95;;;3.92;;
11829;SDS011;5972;42.134;24.718;2023-09-19T12:11:19;10.73;;;4.50;;
11829;SDS011;5972;42.134;24.718;2023-09-19T12:13:49;5.85;;;4.30;;
11829;SDS011;5972;42.134;24.718;2023-09-19T12:16:19;7.07;;;4.20;;
11829;SDS011;5972;42.134;24.718;2023-09-19T12:18:48;7.68;;;4.22;;
11829;SDS011;5972;42.134;24.718;2023-09-19T12:21:26;11.60;;;4.57;;
11829;SDS011;5972;42.134;24.718;2023-09-19T12:24:06;6.68;;;3.97;;
11829;SDS011;5972;42.134;24.718;2023-09-19T12:26:41;6.93;;;4.00;;
11829;SDS011;5972;42.134;24.718;2023-09-19T12:29:18;5.35;;;4.22;;
11829;SDS011;5972;42.134;24.718;2023-09-19T12:31:50;13.77;;;4.32;;
11829;SDS011;5972;42.134;24.718;2023-09-19T12:34:20;9.27;;;4.38;;
11829;SDS011;5972;42.134;24.718;2023-09-19T12:37:03;5.85;;;4.00;;
11829;SDS011;5972;42.134;24.718;2023-09-19T12:39:36;5.80;;;4.40;;
11829;SDS011;5972;42.134;24.718;2023-09-19T12:42:04;5.45;;;4.32;;
11829;SDS011;5972;42.134;24.718;2023-09-19T12:44:35;5.03;;;3.92;;
11829;SDS011;5972;42.134;24.718;2023-09-19T12:47:10;7.88;;;4.03;;
11829;SDS011;5972;42.134;24.718;2023-09-19T12:52:40;8.32;;;3.95;;
11829;SDS011;5972;42.134;24.718;2023-09-19T12:55:19;7.70;;;4.07;;
11829;SDS011;5972;42.134;24.718;2023-09-19T12:58:02;4.95;;;3.80;;
11829;SDS011;5972;42.134;24.718;2023-09-19T13:00:36;5.80;;;4.43;;
11829;SDS011;5972;42.134;24.718;2023-09-19T13:03:14;10.13;;;3.80;;
11829;SDS011;5972;42.134;24.718;2023-09-19T13:05:50;6.50;;;3.90;;
11829;SDS011;5972;42.134;24.718;2023-09-19T13:08:23;7.80;;;4.00;;
11829;SDS011;5972;42.134;24.718;2023-09-19T13:11:00;7.63;;;4.10;;
11829;SDS011;5972;42.134;24.718;2023-09-19T13:13:34;9.65;;;4.35;;
11829;SDS011;5972;42.134;24.718;2023-09-19T13:16:04;8.75;;;3.97;;
11829;SDS011;5972;42.134;24.718;2023-09-19T13:18:43;8.25;;;3.63;;
11829;SDS011;5972;42.134;24.718;2023-09-19T13:21:12;7.57;;;4.40;;
11829;SDS011;5972;42.134;24.718;2023-09-19T13:23:49;9.43;;;3.90;;
11829;SDS011;5972;42.134;24.718;2023-09-19T13:26:17;7.82;;;3.80;;
11829;SDS011;5972;42.134;24.718;2023-09-19T13:28:44;6.57;;;3.60;;
11829;SDS011;5972;42.134;24.718;2023-09-19T13:31:14;5.35;;;3.70;;
11829;SDS011;5972;42.134;24.718;2023-09-19T13:33:45;5.63;;;3.88;;
11829;SDS011;5972;42.134;24.718;2023-09-19T13:36:12;4.07;;;3.47;;
11829;SDS011;5972;42.134;24.718;2023-09-19T13:38:40;4.10;;;3.70;;
11829;SDS011;5972;42.134;24.718;2023-09-19T13:41:08;7.10;;;3.78;;
11829;SDS011;5972;42.134;24.718;2023-09-19T13:43:36;6.93;;;3.72;;
11829;SDS011;5972;42.134;24.718;2023-09-19T13:46:03;6.00;;;3.75;;
11829;SDS011;5972;42.134;24.718;2023-09-19T13:48:34;7.35;;;3.70;;
11829;SDS011;5972;42.134;24.718;2023-09-19T13:51:01;10.75;;;3.85;;
11829;SDS011;5972;42.134;24.718;2023-09-19T13:53:29;5.78;;;3.80;;
11829;SDS011;5972;42.134;24.718;2023-09-19T13:55:57;7.07;;;3.83;;
11829;SDS011;5972;42.134;24.718;2023-09-19T13:58:23;6.47;;;3.97;;
11829;SDS011;5972;42.134;24.718;2023-09-19T14:00:52;9.27;;;3.88;;
11829;SDS011;5972;42.134;24.718;2023-09-19T14:03:21;5.90;;;4.22;;
11829;SDS011;5972;42.134;24.718;2023-09-19T14:05:50;4.30;;;3.70;;
11829;SDS011;5972;42.134;24.718;2023-09-19T14:08:17;7.50;;;3.97;;
11829;SDS011;5972;42.134;24.718;2023-09-19T14:10:44;9.13;;;3.97;;
11829;SDS011;5972;42.134;24.718;2023-09-19T14:13:11;8.93;;;3.88;;
11829;SDS011;5972;42.134;24.718;2023-09-19T14:15:40;12.93;;;3.70;;
11829;SDS011;5972;42.134;24.718;2023-09-19T14:18:07;7.75;;;3.42;;
11829;SDS011;5972;42.134;24.718;2023-09-19T14:20:37;8.30;;;3.83;;
11829;SDS011;5972;42.134;24.718;2023-09-19T14:23:06;6.57;;;3.75;;
11829;SDS011;5972;42.134;24.718;2023-09-19T14:25:33;9.60;;;3.90;;
11829;SDS011;5972;42.134;24.718;2023-09-19T14:28:01;5.95;;;3.90;;
11829;SDS011;5972;42.134;24.718;2023-09-19T14:30:28;6.68;;;3.80;;
11829;SDS011;5972;42.134;24.718;2023-09-19T14:32:55;10.70;;;4.00;;
11829;SDS011;5972;42.134;24.718;2023-09-19T14:35:23;9.40;;;4.03;;
11829;SDS011;5972;42.134;24.718;2023-09-19T14:37:50;5.47;;;3.85;;
11829;SDS011;5972;42.134;24.718;2023-09-19T14:40:18;9.02;;;3.90;;
11829;SDS011;5972;42.134;24.718;2023-09-19T14:42:45;7.00;;;3.70;;
11829;SDS011;5972;42.134;24.718;2023-09-19T14:45:13;6.53;;;3.70;;
11829;SDS011;5972;42.134;24.718;2023-09-19T14:47:43;9.25;;;4.13;;
11829;SDS011;5972;42.134;24.718;2023-09-19T14:50:10;10.45;;;4.13;;
11829;SDS011;5972;42.134;24.718;2023-09-19T14:52:37;5.75;;;4.15;;
11829;SDS011;5972;42.134;24.718;2023-09-19T14:55:05;8.57;;;3.78;;
11829;SDS011;5972;42.134;24.718;2023-09-19T14:57:35;9.70;;;3.60;;
11829;SDS011;5972;42.134;24.718;2023-09-19T15:00:05;9.50;;;4.15;;
11829;SDS011;5972;42.134;24.718;2023-09-19T15:02:37;6.38;;;3.88;;
11829;SDS011;5972;42.134;24.718;2023-09-19T15:05:05;7.57;;;3.90;;
11829;SDS011;5972;42.134;24.718;2023-09-19T15:07:34;7.78;;;4.20;;
11829;SDS011;5972;42.134;24.718;2023-09-19T15:10:04;9.45;;;4.40;;
11829;SDS011;5972;42.134;24.718;2023-09-19T15:12:36;8.73;;;4.28;;
11829;SDS011;5972;42.134;24.718;2023-09-19T15:15:05;9.48;;;4.43;;
11829;SDS011;5972;42.134;24.718;2023-09-19T15:17:33;9.63;;;4.60;;
11829;SDS011;5972;42.134;24.718;2023-09-19T15:20:00;8.38;;;4.70;;
11829;SDS011;5972;42.134;24.718;2023-09-19T15:22:31;11.00;;;4.18;;
11829;SDS011;5972;42.134;24.718;2023-09-19T15:24:58;17.08;;;4.28;;
11829;SDS011;5972;42.134;24.718;2023-09-19T15:27:25;7.53;;;4.28;;